logo
Search for airport 
image banner adimage banner adimage banner ad
image banner ad

OJAQ - Aqaba / King Hussein Intl

Located in Aqaba, Jordan

ICAO - OJAQ, IATA - AQJ

Data provided by Airmate  

General information

Coordinates: N29°36'42" E35°1'5"
Elevation is 175 feet MSL.
Magnetic variation is 4° East
View others Airports in Al 'Aqaba

Operational data

Special qualification required
Current time UTC:
Current local time:
Weather
METAR: OJAQ 251700Z 36006KT CAVOK 40/07 Q1000 NOSIG
TAF: TAF OJAQ 251700Z 2518/2624 36008KT CAVOK PROB30 TEMPO 2612/2618 35017KT 6000
View NOTAMs / SUP AIP / TFR affecting this airport [VIEW]
Communications frequencies: [VIEW]

Runways:

RWY identifierQFULength (ft)Width (ft)SurfaceLDA (ft)
0119°9843148ASPH9843
19199°9843148ASPH9843

Airport contact information

Address: Aqaba Jordan

Satellite view of OJAQ